sensor_id;sensor_type;location;lat;lon;timestamp;temperature;humidity
6841;DHT22;3458;53.678;14.080;2024-02-21T00:01:47;7.70;99.90
6841;DHT22;3458;53.678;14.080;2024-02-21T00:04:13;7.70;99.90
6841;DHT22;3458;53.678;14.080;2024-02-21T00:06:38;7.80;99.90
6841;DHT22;3458;53.678;14.080;2024-02-21T00:09:03;7.70;99.90
6841;DHT22;3458;53.678;14.080;2024-02-21T00:11:29;7.80;99.90
6841;DHT22;3458;53.678;14.080;2024-02-21T00:13:55;7.70;99.90
6841;DHT22;3458;53.678;14.080;2024-02-21T00:16:20;7.70;99.90
6841;DHT22;3458;53.678;14.080;2024-02-21T00:18:46;7.70;99.90
6841;DHT22;3458;53.678;14.080;2024-02-21T00:21:11;7.70;99.90
6841;DHT22;3458;53.678;14.080;2024-02-21T00:23:44;7.70;99.90
6841;DHT22;3458;53.678;14.080;2024-02-21T00:26:11;7.70;99.90
6841;DHT22;3458;53.678;14.080;2024-02-21T00:28:37;7.70;99.90
6841;DHT22;3458;53.678;14.080;2024-02-21T00:31:02;7.70;99.90
6841;DHT22;3458;53.678;14.080;2024-02-21T00:33:28;7.70;99.90
6841;DHT22;3458;53.678;14.080;2024-02-21T00:35:53;7.70;99.90
6841;DHT22;3458;53.678;14.080;2024-02-21T00:38:19;7.70;99.90
6841;DHT22;3458;53.678;14.080;2024-02-21T00:40:44;7.70;99.90
6841;DHT22;3458;53.678;14.080;2024-02-21T00:43:10;7.60;99.90
6841;DHT22;3458;53.678;14.080;2024-02-21T00:45:35;7.60;99.90
6841;DHT22;3458;53.678;14.080;2024-02-21T00:48:01;7.70;99.90
6841;DHT22;3458;53.678;14.080;2024-02-21T00:50:26;7.60;99.90
6841;DHT22;3458;53.678;14.080;2024-02-21T00:52:52;7.70;99.90
6841;DHT22;3458;53.678;14.080;2024-02-21T00:55:17;7.70;99.90
6841;DHT22;3458;53.678;14.080;2024-02-21T00:57:43;7.60;99.90
6841;DHT22;3458;53.678;14.080;2024-02-21T01:00:08;7.60;99.90
6841;DHT22;3458;53.678;14.080;2024-02-21T01:02:34;7.60;99.90
6841;DHT22;3458;53.678;14.080;2024-02-21T01:05:00;7.60;99.90
6841;DHT22;3458;53.678;14.080;2024-02-21T01:07:25;7.60;99.90
6841;DHT22;3458;53.678;14.080;2024-02-21T01:09:51;7.60;99.90
6841;DHT22;3458;53.678;14.080;2024-02-21T01:12:17;7.60;99.90
6841;DHT22;3458;53.678;14.080;2024-02-21T01:14:42;7.60;99.90
6841;DHT22;3458;53.678;14.080;2024-02-21T01:17:08;7.60;99.90
6841;DHT22;3458;53.678;14.080;2024-02-21T01:19:33;7.60;99.90
6841;DHT22;3458;53.678;14.080;2024-02-21T01:21:59;7.60;99.90
6841;DHT22;3458;53.678;14.080;2024-02-21T01:24:24;7.70;99.90
6841;DHT22;3458;53.678;14.080;2024-02-21T01:26:50;7.60;99.90
6841;DHT22;3458;53.678;14.080;2024-02-21T01:29:15;7.60;99.90
6841;DHT22;3458;53.678;14.080;2024-02-21T01:31:41;7.60;99.90
6841;DHT22;3458;53.678;14.080;2024-02-21T01:34:06;7.70;99.90
6841;DHT22;3458;53.678;14.080;2024-02-21T01:36:32;7.70;99.90
6841;DHT22;3458;53.678;14.080;2024-02-21T01:38:58;7.70;99.90
6841;DHT22;3458;53.678;14.080;2024-02-21T01:41:23;7.70;99.90
6841;DHT22;3458;53.678;14.080;2024-02-21T01:43:48;7.70;99.90
6841;DHT22;3458;53.678;14.080;2024-02-21T01:46:14;7.70;99.90
6841;DHT22;3458;53.678;14.080;2024-02-21T01:48:40;7.70;99.90
6841;DHT22;3458;53.678;14.080;2024-02-21T01:51:05;7.70;99.90
6841;DHT22;3458;53.678;14.080;2024-02-21T01:53:35;7.70;99.90
6841;DHT22;3458;53.678;14.080;2024-02-21T01:56:03;7.70;99.90
6841;DHT22;3458;53.678;14.080;2024-02-21T01:58:31;7.80;99.90
6841;DHT22;3458;53.678;14.080;2024-02-21T02:00:57;7.70;99.90
6841;DHT22;3458;53.678;14.080;2024-02-21T02:03:23;7.70;99.90
6841;DHT22;3458;53.678;14.080;2024-02-21T02:05:50;7.70;99.90
6841;DHT22;3458;53.678;14.080;2024-02-21T02:08:17;7.70;99.90
6841;DHT22;3458;53.678;14.080;2024-02-21T02:10:43;7.70;99.90
6841;DHT22;3458;53.678;14.080;2024-02-21T02:13:09;7.70;99.90
6841;DHT22;3458;53.678;14.080;2024-02-21T02:15:43;7.70;99.90
6841;DHT22;3458;53.678;14.080;2024-02-21T02:18:09;7.70;99.90
6841;DHT22;3458;53.678;14.080;2024-02-21T02:20:38;7.70;99.90
6841;DHT22;3458;53.678;14.080;2024-02-21T02:23:10;7.70;99.90
6841;DHT22;3458;53.678;14.080;2024-02-21T02:25:38;7.70;99.90
6841;DHT22;3458;53.678;14.080;2024-02-21T02:28:05;7.70;99.90
6841;DHT22;3458;53.678;14.080;2024-02-21T02:30:37;7.70;99.90
6841;DHT22;3458;53.678;14.080;2024-02-21T02:33:04;7.70;99.90
6841;DHT22;3458;53.678;14.080;2024-02-21T02:35:29;7.70;99.90
6841;DHT22;3458;53.678;14.080;2024-02-21T02:37:55;7.70;99.90
6841;DHT22;3458;53.678;14.080;2024-02-21T02:40:20;7.70;99.90
6841;DHT22;3458;53.678;14.080;2024-02-21T02:42:46;7.70;99.90
6841;DHT22;3458;53.678;14.080;2024-02-21T02:45:17;7.70;99.90
6841;DHT22;3458;53.678;14.080;2024-02-21T02:47:44;7.70;99.90
6841;DHT22;3458;53.678;14.080;2024-02-21T02:50:11;7.70;99.90
6841;DHT22;3458;53.678;14.080;2024-02-21T02:52:37;7.70;99.90
6841;DHT22;3458;53.678;14.080;2024-02-21T02:55:03;7.80;99.90
6841;DHT22;3458;53.678;14.080;2024-02-21T02:57:28;7.70;99.90
6841;DHT22;3458;53.678;14.080;2024-02-21T02:59:54;7.80;99.90
6841;DHT22;3458;53.678;14.080;2024-02-21T03:02:19;7.80;99.90
6841;DHT22;3458;53.678;14.080;2024-02-21T03:04:45;7.80;99.90
6841;DHT22;3458;53.678;14.080;2024-02-21T03:07:11;7.80;99.90
6841;DHT22;3458;53.678;14.080;2024-02-21T03:09:37;7.70;99.90
6841;DHT22;3458;53.678;14.080;2024-02-21T03:12:04;7.70;99.90
6841;DHT22;3458;53.678;14.080;2024-02-21T03:14:29;7.70;99.90
6841;DHT22;3458;53.678;14.080;2024-02-21T03:16:55;7.70;99.90
6841;DHT22;3458;53.678;14.080;2024-02-21T03:19:21;7.70;99.90
6841;DHT22;3458;53.678;14.080;2024-02-21T03:21:46;7.70;99.90
6841;DHT22;3458;53.678;14.080;2024-02-21T03:24:12;7.70;99.90
6841;DHT22;3458;53.678;14.080;2024-02-21T03:26:37;7.70;99.90
6841;DHT22;3458;53.678;14.080;2024-02-21T03:29:03;7.70;99.90
6841;DHT22;3458;53.678;14.080;2024-02-21T03:31:29;7.70;99.90
6841;DHT22;3458;53.678;14.080;2024-02-21T03:33:54;7.60;99.90
6841;DHT22;3458;53.678;14.080;2024-02-21T03:36:20;7.60;99.90
6841;DHT22;3458;53.678;14.080;2024-02-21T03:38:45;7.60;99.90
6841;DHT22;3458;53.678;14.080;2024-02-21T03:41:11;7.60;99.90
6841;DHT22;3458;53.678;14.080;2024-02-21T03:43:39;7.60;99.90
6841;DHT22;3458;53.678;14.080;2024-02-21T03:46:05;7.70;99.90
6841;DHT22;3458;53.678;14.080;2024-02-21T03:48:31;7.60;99.90
6841;DHT22;3458;53.678;14.080;2024-02-21T03:50:57;7.60;99.90
6841;DHT22;3458;53.678;14.080;2024-02-21T03:53:23;7.60;99.90
6841;DHT22;3458;53.678;14.080;2024-02-21T03:55:48;7.60;99.90
6841;DHT22;3458;53.678;14.080;2024-02-21T03:58:14;7.60;99.90
6841;DHT22;3458;53.678;14.080;2024-02-21T04:00:39;7.60;99.90
6841;DHT22;3458;53.678;14.080;2024-02-21T04:03:05;7.60;99.90
6841;DHT22;3458;53.678;14.080;2024-02-21T04:05:31;7.60;99.90
6841;DHT22;3458;53.678;14.080;2024-02-21T04:07:57;7.60;99.90
6841;DHT22;3458;53.678;14.080;2024-02-21T04:10:22;7.60;99.90
6841;DHT22;3458;53.678;14.080;2024-02-21T04:12:48;7.60;99.90
6841;DHT22;3458;53.678;14.080;2024-02-21T04:15:18;7.60;99.90
6841;DHT22;3458;53.678;14.080;2024-02-21T04:17:44;7.60;99.90
6841;DHT22;3458;53.678;14.080;2024-02-21T04:20:14;7.60;99.90
6841;DHT22;3458;53.678;14.080;2024-02-21T04:22:40;7.60;99.90
6841;DHT22;3458;53.678;14.080;2024-02-21T04:25:06;7.70;99.90
6841;DHT22;3458;53.678;14.080;2024-02-21T04:27:32;7.60;99.90
6841;DHT22;3458;53.678;14.080;2024-02-21T04:29:57;7.60;99.90
6841;DHT22;3458;53.678;14.080;2024-02-21T04:32:23;7.60;99.90
6841;DHT22;3458;53.678;14.080;2024-02-21T04:34:48;7.70;99.90
6841;DHT22;3458;53.678;14.080;2024-02-21T04:37:14;7.60;99.90
6841;DHT22;3458;53.678;14.080;2024-02-21T04:39:40;7.60;99.90
6841;DHT22;3458;53.678;14.080;2024-02-21T04:42:05;7.70;99.90
6841;DHT22;3458;53.678;14.080;2024-02-21T04:44:31;7.60;99.90
6841;DHT22;3458;53.678;14.080;2024-02-21T04:46:56;7.60;99.90
6841;DHT22;3458;53.678;14.080;2024-02-21T04:49:22;7.70;99.90
6841;DHT22;3458;53.678;14.080;2024-02-21T04:51:47;7.70;99.90
6841;DHT22;3458;53.678;14.080;2024-02-21T04:54:13;7.70;99.90
6841;DHT22;3458;53.678;14.080;2024-02-21T04:56:38;7.70;99.90
6841;DHT22;3458;53.678;14.080;2024-02-21T04:59:04;7.70;99.90
6841;DHT22;3458;53.678;14.080;2024-02-21T05:01:29;7.70;99.90
6841;DHT22;3458;53.678;14.080;2024-02-21T05:03:55;7.70;99.90
6841;DHT22;3458;53.678;14.080;2024-02-21T05:06:20;7.70;99.90
6841;DHT22;3458;53.678;14.080;2024-02-21T05:08:46;7.70;99.90
6841;DHT22;3458;53.678;14.080;2024-02-21T05:11:11;7.70;99.90
6841;DHT22;3458;53.678;14.080;2024-02-21T05:13:37;7.70;99.90
6841;DHT22;3458;53.678;14.080;2024-02-21T05:16:03;7.70;99.90
6841;DHT22;3458;53.678;14.080;2024-02-21T05:18:28;7.70;99.90
6841;DHT22;3458;53.678;14.080;2024-02-21T05:20:54;7.80;99.90
6841;DHT22;3458;53.678;14.080;2024-02-21T05:23:19;7.70;99.90
6841;DHT22;3458;53.678;14.080;2024-02-21T05:25:45;7.80;99.90
6841;DHT22;3458;53.678;14.080;2024-02-21T05:28:10;7.80;99.90
6841;DHT22;3458;53.678;14.080;2024-02-21T05:30:36;7.80;99.90
6841;DHT22;3458;53.678;14.080;2024-02-21T05:33:05;7.80;99.90
6841;DHT22;3458;53.678;14.080;2024-02-21T05:35:31;7.80;99.90
6841;DHT22;3458;53.678;14.080;2024-02-21T05:37:57;7.80;99.90
6841;DHT22;3458;53.678;14.080;2024-02-21T05:40:22;7.80;99.90
6841;DHT22;3458;53.678;14.080;2024-02-21T05:42:48;7.80;99.90
6841;DHT22;3458;53.678;14.080;2024-02-21T05:45:13;7.80;99.90
6841;DHT22;3458;53.678;14.080;2024-02-21T05:47:41;7.90;99.90
6841;DHT22;3458;53.678;14.080;2024-02-21T05:50:06;7.90;99.90
6841;DHT22;3458;53.678;14.080;2024-02-21T05:52:32;8.00;99.90
6841;DHT22;3458;53.678;14.080;2024-02-21T05:54:57;8.00;99.90
6841;DHT22;3458;53.678;14.080;2024-02-21T05:57:23;8.00;99.90
6841;DHT22;3458;53.678;14.080;2024-02-21T05:59:48;8.00;99.90
6841;DHT22;3458;53.678;14.080;2024-02-21T06:02:14;8.10;99.90
6841;DHT22;3458;53.678;14.080;2024-02-21T06:04:39;8.10;99.90
6841;DHT22;3458;53.678;14.080;2024-02-21T06:07:05;8.10;99.90
6841;DHT22;3458;53.678;14.080;2024-02-21T06:09:30;8.10;99.90
6841;DHT22;3458;53.678;14.080;2024-02-21T06:11:57;8.10;99.90
6841;DHT22;3458;53.678;14.080;2024-02-21T06:14:22;8.10;99.90
6841;DHT22;3458;53.678;14.080;2024-02-21T06:16:48;8.10;99.90
6841;DHT22;3458;53.678;14.080;2024-02-21T06:19:13;8.10;99.90
6841;DHT22;3458;53.678;14.080;2024-02-21T06:21:39;8.10;99.90
6841;DHT22;3458;53.678;14.080;2024-02-21T06:24:04;8.10;99.90
6841;DHT22;3458;53.678;14.080;2024-02-21T06:26:30;8.10;99.90
6841;DHT22;3458;53.678;14.080;2024-02-21T06:28:55;8.10;99.90
6841;DHT22;3458;53.678;14.080;2024-02-21T06:31:21;8.10;99.90
6841;DHT22;3458;53.678;14.080;2024-02-21T06:33:46;8.10;99.90
6841;DHT22;3458;53.678;14.080;2024-02-21T06:36:12;8.10;99.90
6841;DHT22;3458;53.678;14.080;2024-02-21T06:38:38;8.10;99.90
6841;DHT22;3458;53.678;14.080;2024-02-21T06:41:03;8.10;99.90
6841;DHT22;3458;53.678;14.080;2024-02-21T06:43:29;8.00;99.90
6841;DHT22;3458;53.678;14.080;2024-02-21T06:45:55;8.00;99.90
6841;DHT22;3458;53.678;14.080;2024-02-21T06:48:22;8.00;99.90
6841;DHT22;3458;53.678;14.080;2024-02-21T06:50:47;8.00;99.90
6841;DHT22;3458;53.678;14.080;2024-02-21T06:53:13;8.00;99.90
6841;DHT22;3458;53.678;14.080;2024-02-21T06:55:38;8.00;99.90
6841;DHT22;3458;53.678;14.080;2024-02-21T06:58:04;8.00;99.90
6841;DHT22;3458;53.678;14.080;2024-02-21T07:00:30;8.00;99.90
6841;DHT22;3458;53.678;14.080;2024-02-21T07:02:55;8.00;99.90
6841;DHT22;3458;53.678;14.080;2024-02-21T07:05:21;8.10;99.90
6841;DHT22;3458;53.678;14.080;2024-02-21T07:07:47;8.10;99.90
6841;DHT22;3458;53.678;14.080;2024-02-21T07:10:13;8.10;99.90
6841;DHT22;3458;53.678;14.080;2024-02-21T07:12:38;8.10;99.90
6841;DHT22;3458;53.678;14.080;2024-02-21T07:15:07;8.10;99.90
6841;DHT22;3458;53.678;14.080;2024-02-21T07:17:32;8.10;99.90
6841;DHT22;3458;53.678;14.080;2024-02-21T07:19:58;8.10;99.90
6841;DHT22;3458;53.678;14.080;2024-02-21T07:22:24;8.10;99.90
6841;DHT22;3458;53.678;14.080;2024-02-21T07:24:50;8.10;99.90
6841;DHT22;3458;53.678;14.080;2024-02-21T07:27:16;8.20;99.90
6841;DHT22;3458;53.678;14.080;2024-02-21T07:29:42;8.20;99.90
6841;DHT22;3458;53.678;14.080;2024-02-21T07:32:07;8.20;99.90
6841;DHT22;3458;53.678;14.080;2024-02-21T07:34:33;8.20;99.90
6841;DHT22;3458;53.678;14.080;2024-02-21T07:36:58;8.30;99.90
6841;DHT22;3458;53.678;14.080;2024-02-21T07:39:24;8.30;99.90
6841;DHT22;3458;53.678;14.080;2024-02-21T07:41:49;8.30;99.90
6841;DHT22;3458;53.678;14.080;2024-02-21T07:44:15;8.30;99.90
6841;DHT22;3458;53.678;14.080;2024-02-21T07:46:41;8.40;99.90
6841;DHT22;3458;53.678;14.080;2024-02-21T07:49:06;8.40;99.90
6841;DHT22;3458;53.678;14.080;2024-02-21T07:51:32;8.50;99.90
6841;DHT22;3458;53.678;14.080;2024-02-21T07:53:57;8.60;99.90
6841;DHT22;3458;53.678;14.080;2024-02-21T07:56:23;8.50;99.90
6841;DHT22;3458;53.678;14.080;2024-02-21T07:58:48;8.50;99.90
6841;DHT22;3458;53.678;14.080;2024-02-21T08:01:20;8.50;99.90
6841;DHT22;3458;53.678;14.080;2024-02-21T08:03:46;8.50;99.90
6841;DHT22;3458;53.678;14.080;2024-02-21T08:06:12;8.50;99.90
6841;DHT22;3458;53.678;14.080;2024-02-21T08:08:38;8.60;99.90
6841;DHT22;3458;53.678;14.080;2024-02-21T08:11:04;8.60;99.90
6841;DHT22;3458;53.678;14.080;2024-02-21T08:13:29;8.60;99.90
6841;DHT22;3458;53.678;14.080;2024-02-21T08:15:55;8.70;99.90
6841;DHT22;3458;53.678;14.080;2024-02-21T08:18:20;8.70;99.90
6841;DHT22;3458;53.678;14.080;2024-02-21T08:20:46;8.70;99.90
6841;DHT22;3458;53.678;14.080;2024-02-21T08:23:11;8.70;99.90
6841;DHT22;3458;53.678;14.080;2024-02-21T08:25:37;8.70;99.90
6841;DHT22;3458;53.678;14.080;2024-02-21T08:28:04;8.70;99.90
6841;DHT22;3458;53.678;14.080;2024-02-21T08:30:30;8.70;99.90
6841;DHT22;3458;53.678;14.080;2024-02-21T08:32:56;8.70;99.90
6841;DHT22;3458;53.678;14.080;2024-02-21T08:35:21;8.80;99.90
6841;DHT22;3458;53.678;14.080;2024-02-21T08:37:47;8.80;99.90
6841;DHT22;3458;53.678;14.080;2024-02-21T08:40:14;8.70;99.90
6841;DHT22;3458;53.678;14.080;2024-02-21T08:42:43;8.80;99.90
6841;DHT22;3458;53.678;14.080;2024-02-21T08:45:09;8.80;99.90
6841;DHT22;3458;53.678;14.080;2024-02-21T08:47:35;8.80;99.90
6841;DHT22;3458;53.678;14.080;2024-02-21T08:50:03;8.80;99.90
6841;DHT22;3458;53.678;14.080;2024-02-21T08:52:29;8.80;99.90
6841;DHT22;3458;53.678;14.080;2024-02-21T08:54:54;8.90;99.90
6841;DHT22;3458;53.678;14.080;2024-02-21T08:57:20;8.90;99.90
6841;DHT22;3458;53.678;14.080;2024-02-21T08:59:46;9.00;99.90
6841;DHT22;3458;53.678;14.080;2024-02-21T09:02:12;9.00;99.90
6841;DHT22;3458;53.678;14.080;2024-02-21T09:04:38;9.00;99.90
6841;DHT22;3458;53.678;14.080;2024-02-21T09:07:04;9.10;99.90
6841;DHT22;3458;53.678;14.080;2024-02-21T09:09:29;9.10;99.90
6841;DHT22;3458;53.678;14.080;2024-02-21T09:11:55;9.10;99.90
6841;DHT22;3458;53.678;14.080;2024-02-21T09:14:20;9.10;99.90
6841;DHT22;3458;53.678;14.080;2024-02-21T09:16:45;9.10;99.90
6841;DHT22;3458;53.678;14.080;2024-02-21T09:19:11;9.10;99.90
6841;DHT22;3458;53.678;14.080;2024-02-21T09:21:39;9.10;99.90
6841;DHT22;3458;53.678;14.080;2024-02-21T09:24:06;9.10;99.90
6841;DHT22;3458;53.678;14.080;2024-02-21T09:26:31;9.20;99.90
6841;DHT22;3458;53.678;14.080;2024-02-21T09:28:57;9.20;99.90
6841;DHT22;3458;53.678;14.080;2024-02-21T09:31:22;9.40;99.90
6841;DHT22;3458;53.678;14.080;2024-02-21T09:33:48;9.50;99.90
6841;DHT22;3458;53.678;14.080;2024-02-21T09:36:14;9.60;99.90
6841;DHT22;3458;53.678;14.080;2024-02-21T09:38:40;9.50;99.90
6841;DHT22;3458;53.678;14.080;2024-02-21T09:41:17;9.50;99.90
6841;DHT22;3458;53.678;14.080;2024-02-21T09:43:45;9.50;99.90
6841;DHT22;3458;53.678;14.080;2024-02-21T09:46:16;9.50;99.90
6841;DHT22;3458;53.678;14.080;2024-02-21T09:51:30;9.80;99.90
6841;DHT22;3458;53.678;14.080;2024-02-21T09:53:58;9.80;99.90
6841;DHT22;3458;53.678;14.080;2024-02-21T09:56:24;9.70;99.90
6841;DHT22;3458;53.678;14.080;2024-02-21T09:58:50;9.80;99.90
6841;DHT22;3458;53.678;14.080;2024-02-21T10:01:15;9.80;99.90
6841;DHT22;3458;53.678;14.080;2024-02-21T10:03:41;9.90;99.90
6841;DHT22;3458;53.678;14.080;2024-02-21T10:06:09;9.90;99.90
6841;DHT22;3458;53.678;14.080;2024-02-21T10:08:34;9.90;99.90
6841;DHT22;3458;53.678;14.080;2024-02-21T10:11:00;10.00;99.90
6841;DHT22;3458;53.678;14.080;2024-02-21T10:13:28;10.00;99.90
6841;DHT22;3458;53.678;14.080;2024-02-21T10:16:07;10.00;99.90
6841;DHT22;3458;53.678;14.080;2024-02-21T10:18:34;10.00;99.90
6841;DHT22;3458;53.678;14.080;2024-02-21T10:21:01;10.10;99.90
6841;DHT22;3458;53.678;14.080;2024-02-21T10:23:26;10.10;99.90
6841;DHT22;3458;53.678;14.080;2024-02-21T10:25:52;10.20;99.90
6841;DHT22;3458;53.678;14.080;2024-02-21T10:28:17;10.20;99.90
6841;DHT22;3458;53.678;14.080;2024-02-21T10:30:51;10.30;99.90
6841;DHT22;3458;53.678;14.080;2024-02-21T10:33:17;10.30;99.90
6841;DHT22;3458;53.678;14.080;2024-02-21T10:35:46;10.30;99.90
6841;DHT22;3458;53.678;14.080;2024-02-21T10:38:12;10.30;99.90
6841;DHT22;3458;53.678;14.080;2024-02-21T10:40:37;10.30;99.90
6841;DHT22;3458;53.678;14.080;2024-02-21T10:43:03;10.50;99.90
6841;DHT22;3458;53.678;14.080;2024-02-21T10:45:34;10.60;99.90
6841;DHT22;3458;53.678;14.080;2024-02-21T10:48:12;10.80;99.90
6841;DHT22;3458;53.678;14.080;2024-02-21T10:50:57;11.00;99.90
6841;DHT22;3458;53.678;14.080;2024-02-21T10:53:44;10.90;99.90
6841;DHT22;3458;53.678;14.080;2024-02-21T10:56:26;10.90;99.90
6841;DHT22;3458;53.678;14.080;2024-02-21T10:58:53;10.90;99.90
6841;DHT22;3458;53.678;14.080;2024-02-21T11:01:19;10.80;99.90
6841;DHT22;3458;53.678;14.080;2024-02-21T11:03:46;10.80;99.90
6841;DHT22;3458;53.678;14.080;2024-02-21T11:06:13;10.80;99.90
6841;DHT22;3458;53.678;14.080;2024-02-21T11:08:39;10.90;99.90
6841;DHT22;3458;53.678;14.080;2024-02-21T11:11:05;11.00;99.90
6841;DHT22;3458;53.678;14.080;2024-02-21T11:13:37;11.10;99.90
6841;DHT22;3458;53.678;14.080;2024-02-21T11:16:07;11.10;99.90
6841;DHT22;3458;53.678;14.080;2024-02-21T11:18:33;11.10;99.90
6841;DHT22;3458;53.678;14.080;2024-02-21T11:20:58;11.10;99.90
6841;DHT22;3458;53.678;14.080;2024-02-21T11:23:25;11.10;99.90
6841;DHT22;3458;53.678;14.080;2024-02-21T11:25:51;11.20;99.90
6841;DHT22;3458;53.678;14.080;2024-02-21T11:28:25;11.20;99.90
6841;DHT22;3458;53.678;14.080;2024-02-21T11:30:51;11.10;99.90
6841;DHT22;3458;53.678;14.080;2024-02-21T11:33:16;11.20;99.90
6841;DHT22;3458;53.678;14.080;2024-02-21T11:35:43;11.20;99.90
6841;DHT22;3458;53.678;14.080;2024-02-21T11:38:12;11.10;99.90
6841;DHT22;3458;53.678;14.080;2024-02-21T11:40:44;11.20;99.90
6841;DHT22;3458;53.678;14.080;2024-02-21T11:43:09;11.10;99.90
6841;DHT22;3458;53.678;14.080;2024-02-21T11:45:35;11.20;99.90
6841;DHT22;3458;53.678;14.080;2024-02-21T11:48:01;11.40;99.90
6841;DHT22;3458;53.678;14.080;2024-02-21T11:50:28;11.30;99.90
6841;DHT22;3458;53.678;14.080;2024-02-21T11:52:54;11.40;99.90
6841;DHT22;3458;53.678;14.080;2024-02-21T11:55:21;11.30;99.90
6841;DHT22;3458;53.678;14.080;2024-02-21T11:57:50;11.30;99.90
6841;DHT22;3458;53.678;14.080;2024-02-21T12:00:17;11.20;99.90
6841;DHT22;3458;53.678;14.080;2024-02-21T12:02:45;11.10;99.90
6841;DHT22;3458;53.678;14.080;2024-02-21T12:05:11;11.20;99.90
6841;DHT22;3458;53.678;14.080;2024-02-21T12:07:37;11.10;99.90
6841;DHT22;3458;53.678;14.080;2024-02-21T12:10:09;11.00;99.90
6841;DHT22;3458;53.678;14.080;2024-02-21T12:12:35;11.10;99.90
6841;DHT22;3458;53.678;14.080;2024-02-21T12:15:05;11.20;99.90
6841;DHT22;3458;53.678;14.080;2024-02-21T12:17:39;11.40;99.90
6841;DHT22;3458;53.678;14.080;2024-02-21T12:20:05;11.60;99.90
6841;DHT22;3458;53.678;14.080;2024-02-21T12:22:31;11.70;99.90
6841;DHT22;3458;53.678;14.080;2024-02-21T12:24:58;11.90;99.90
6841;DHT22;3458;53.678;14.080;2024-02-21T12:27:23;11.90;99.90
6841;DHT22;3458;53.678;14.080;2024-02-21T12:29:50;11.90;99.90
6841;DHT22;3458;53.678;14.080;2024-02-21T12:32:15;12.00;99.90
6841;DHT22;3458;53.678;14.080;2024-02-21T12:34:41;12.20;99.90
6841;DHT22;3458;53.678;14.080;2024-02-21T12:37:06;12.20;99.90
6841;DHT22;3458;53.678;14.080;2024-02-21T12:39:32;12.20;99.90
6841;DHT22;3458;53.678;14.080;2024-02-21T12:41:58;12.20;99.90
6841;DHT22;3458;53.678;14.080;2024-02-21T12:44:23;12.00;99.90
6841;DHT22;3458;53.678;14.080;2024-02-21T12:46:49;11.70;99.90
6841;DHT22;3458;53.678;14.080;2024-02-21T12:49:18;11.60;99.90
6841;DHT22;3458;53.678;14.080;2024-02-21T12:51:43;11.60;99.90
6841;DHT22;3458;53.678;14.080;2024-02-21T12:54:12;11.70;99.90
6841;DHT22;3458;53.678;14.080;2024-02-21T12:56:37;11.90;99.90
6841;DHT22;3458;53.678;14.080;2024-02-21T12:59:03;12.20;99.90
6841;DHT22;3458;53.678;14.080;2024-02-21T13:01:28;12.30;99.90
6841;DHT22;3458;53.678;14.080;2024-02-21T13:03:54;12.40;99.90
6841;DHT22;3458;53.678;14.080;2024-02-21T13:06:21;12.50;99.90
6841;DHT22;3458;53.678;14.080;2024-02-21T13:08:46;12.70;99.90
6841;DHT22;3458;53.678;14.080;2024-02-21T13:11:12;12.90;99.90
6841;DHT22;3458;53.678;14.080;2024-02-21T13:13:38;13.20;99.90
6841;DHT22;3458;53.678;14.080;2024-02-21T13:16:04;13.60;99.90
6841;DHT22;3458;53.678;14.080;2024-02-21T13:18:29;13.80;99.90
6841;DHT22;3458;53.678;14.080;2024-02-21T13:20:55;13.90;99.90
6841;DHT22;3458;53.678;14.080;2024-02-21T13:23:21;13.80;99.90
6841;DHT22;3458;53.678;14.080;2024-02-21T13:25:47;13.60;99.90
6841;DHT22;3458;53.678;14.080;2024-02-21T13:28:12;13.80;99.90
6841;DHT22;3458;53.678;14.080;2024-02-21T13:30:38;14.20;99.90
6841;DHT22;3458;53.678;14.080;2024-02-21T13:33:06;14.50;99.90
6841;DHT22;3458;53.678;14.080;2024-02-21T13:35:31;14.70;99.90
6841;DHT22;3458;53.678;14.080;2024-02-21T13:37:57;14.90;99.90
6841;DHT22;3458;53.678;14.080;2024-02-21T13:40:22;15.00;99.90
6841;DHT22;3458;53.678;14.080;2024-02-21T13:42:48;15.00;99.90
6841;DHT22;3458;53.678;14.080;2024-02-21T13:45:15;14.40;99.90
6841;DHT22;3458;53.678;14.080;2024-02-21T13:47:40;14.20;99.90
6841;DHT22;3458;53.678;14.080;2024-02-21T13:50:06;13.70;99.90
6841;DHT22;3458;53.678;14.080;2024-02-21T13:52:54;13.20;99.90
6841;DHT22;3458;53.678;14.080;2024-02-21T13:55:19;12.80;99.90
6841;DHT22;3458;53.678;14.080;2024-02-21T13:57:47;12.50;99.90
6841;DHT22;3458;53.678;14.080;2024-02-21T14:00:13;12.20;99.90
6841;DHT22;3458;53.678;14.080;2024-02-21T14:02:39;12.10;99.90
6841;DHT22;3458;53.678;14.080;2024-02-21T14:05:05;12.10;99.90
6841;DHT22;3458;53.678;14.080;2024-02-21T14:07:31;12.10;99.90
6841;DHT22;3458;53.678;14.080;2024-02-21T14:09:58;12.70;99.90
6841;DHT22;3458;53.678;14.080;2024-02-21T14:12:24;13.20;99.90
6841;DHT22;3458;53.678;14.080;2024-02-21T14:14:49;13.50;99.90
6841;DHT22;3458;53.678;14.080;2024-02-21T14:17:15;13.90;99.90
6841;DHT22;3458;53.678;14.080;2024-02-21T14:19:47;13.80;99.90
6841;DHT22;3458;53.678;14.080;2024-02-21T14:22:12;13.80;99.90
6841;DHT22;3458;53.678;14.080;2024-02-21T14:24:37;13.70;99.90
6841;DHT22;3458;53.678;14.080;2024-02-21T14:27:03;13.60;99.90
6841;DHT22;3458;53.678;14.080;2024-02-21T14:29:29;13.50;99.90
6841;DHT22;3458;53.678;14.080;2024-02-21T14:31:54;13.70;99.90
6841;DHT22;3458;53.678;14.080;2024-02-21T14:34:20;13.70;99.90
6841;DHT22;3458;53.678;14.080;2024-02-21T14:36:45;13.70;99.90
6841;DHT22;3458;53.678;14.080;2024-02-21T14:39:11;13.80;99.90
6841;DHT22;3458;53.678;14.080;2024-02-21T14:41:37;13.80;99.90
6841;DHT22;3458;53.678;14.080;2024-02-21T14:44:02;13.80;99.90
6841;DHT22;3458;53.678;14.080;2024-02-21T14:46:28;14.00;99.90
6841;DHT22;3458;53.678;14.080;2024-02-21T14:48:55;13.80;99.90
6841;DHT22;3458;53.678;14.080;2024-02-21T14:51:20;13.50;99.90
6841;DHT22;3458;53.678;14.080;2024-02-21T14:53:46;13.10;99.90
6841;DHT22;3458;53.678;14.080;2024-02-21T14:56:17;12.80;99.90
6841;DHT22;3458;53.678;14.080;2024-02-21T14:58:43;12.60;99.90
6841;DHT22;3458;53.678;14.080;2024-02-21T15:01:12;12.30;99.90
6841;DHT22;3458;53.678;14.080;2024-02-21T15:03:40;12.20;99.90
6841;DHT22;3458;53.678;14.080;2024-02-21T15:06:05;12.00;99.90
6841;DHT22;3458;53.678;14.080;2024-02-21T15:08:31;11.90;99.90
6841;DHT22;3458;53.678;14.080;2024-02-21T15:10:56;11.80;99.90
6841;DHT22;3458;53.678;14.080;2024-02-21T15:13:25;11.60;99.90
6841;DHT22;3458;53.678;14.080;2024-02-21T15:15:51;11.50;99.90
6841;DHT22;3458;53.678;14.080;2024-02-21T15:18:17;11.40;99.90
6841;DHT22;3458;53.678;14.080;2024-02-21T15:20:43;11.30;99.90
6841;DHT22;3458;53.678;14.080;2024-02-21T15:23:09;11.30;99.90
6841;DHT22;3458;53.678;14.080;2024-02-21T15:25:35;11.20;99.90
6841;DHT22;3458;53.678;14.080;2024-02-21T15:28:00;11.20;99.90
6841;DHT22;3458;53.678;14.080;2024-02-21T15:30:28;11.20;99.90
6841;DHT22;3458;53.678;14.080;2024-02-21T15:32:57;11.10;99.90
6841;DHT22;3458;53.678;14.080;2024-02-21T15:35:29;11.10;99.90
6841;DHT22;3458;53.678;14.080;2024-02-21T15:37:56;11.00;99.90
6841;DHT22;3458;53.678;14.080;2024-02-21T15:40:23;11.00;99.90
6841;DHT22;3458;53.678;14.080;2024-02-21T15:42:48;10.90;99.90
6841;DHT22;3458;53.678;14.080;2024-02-21T15:45:14;10.90;99.90
6841;DHT22;3458;53.678;14.080;2024-02-21T15:47:40;10.80;99.90
6841;DHT22;3458;53.678;14.080;2024-02-21T15:50:06;10.80;99.90
6841;DHT22;3458;53.678;14.080;2024-02-21T15:52:31;10.80;99.90